Time;durP1;ratioP1;P1;durP2;ratioP2;P2;SDS_P1;SDS_P2;PMS_P1;PMS_P2;Temp;Humidity;BMP_temperature;BMP_pressure;BME280_temperature;BME280_humidity;BME280_pressure;Samples;Min_cycle;Max_cycle;Signal;HPM_P1;HPM_P2
2023/11/23 00:02:05;;;;;;;;;;;19.20;57.40;;;;;;1544074;75;1097;-65
2023/11/23 00:04:05;;;;;;;;;;;19.20;56.80;;;;;;1537844;75;1627;-64
2023/11/23 00:06:07;;;;;;;;;;;19.20;56.70;;;;;;1551288;75;756;-63
2023/11/23 00:08:09;;;;;;;;;;;19.20;56.70;;;;;;1548802;75;879;-63
2023/11/23 00:10:11;;;;;;;;;;;19.20;56.70;;;;;;1539161;75;662;-61
2023/11/23 00:12:13;;;;;;;;;;;19.30;56.80;;;;;;1542167;75;1232;-66
2023/11/23 00:14:15;;;;;;;;;;;19.30;56.80;;;;;;1546943;75;809;-62
2023/11/23 00:16:17;;;;;;;;;;;19.20;56.70;;;;;;1539626;75;790;-61
2023/11/23 00:18:19;;;;;;;;;;;19.30;56.80;;;;;;1540924;75;1931;-61
2023/11/23 00:20:21;;;;;;;;;;;19.10;56.70;;;;;;1540288;75;755;-61
2023/11/23 00:22:23;;;;;;;;;;;19.20;56.70;;;;;;1537981;74;1163;-63
2023/11/23 00:24:25;;;;;;;;;;;19.20;56.70;;;;;;1546866;75;710;-62
2023/11/23 00:26:26;;;;;;;;;;;19.20;56.70;;;;;;1546032;75;747;-63
2023/11/23 00:28:28;;;;;;;;;;;19.20;56.70;;;;;;1538782;75;754;-65
2023/11/23 00:30:31;;;;;;;;;;;19.20;56.70;;;;;;1540943;75;708;-64
2023/11/23 00:32:33;;;;;;;;;;;19.20;56.80;;;;;;1540632;75;1123;-62
2023/11/23 00:34:35;;;;;;;;;;;19.20;56.70;;;;;;1537525;75;785;-65
2023/11/23 00:36:39;;;;;;;;;;;19.20;56.70;;;;;;1535105;75;731;-61
2023/11/23 00:38:41;;;;;;;;;;;19.30;56.80;;;;;;1533835;75;1937;-63
2023/11/23 00:40:43;;;;;;;;;;;20.00;57.10;;;;;;1544143;75;793;-61
2023/11/23 00:42:45;;;;;;;;;;;19.30;56.80;;;;;;1536658;75;1164;-61
2023/11/23 00:44:47;;;;;;;;;;;19.30;56.80;;;;;;1538354;75;701;-61
2023/11/23 00:46:49;;;;;;;;;;;19.20;56.70;;;;;;1543201;75;717;-60
2023/11/23 00:48:52;;;;;;;;;;;19.20;56.60;;;;;;1542685;75;735;-61
2023/11/23 00:50:58;;;;;;;;;;;19.20;56.70;;;;;;1541657;75;785;-61
2023/11/23 00:52:57;;;;;;;;;;;19.20;56.70;;;;;;1538715;75;1170;-63
2023/11/23 00:54:59;;;;;;;;;;;19.20;56.70;;;;;;1540592;75;771;-61
2023/11/23 00:57:01;;;;;;;;;;;19.30;56.80;;;;;;1546468;75;703;-61
2023/11/23 00:59:03;;;;;;;;;;;19.20;56.70;;;;;;1547852;75;1919;-64
2023/11/23 01:01:05;;;;;;;;;;;19.20;56.70;;;;;;1538100;75;1546;-62
2023/11/23 01:03:07;;;;;;;;;;;19.20;56.70;;;;;;1537917;75;1105;-63
2023/11/23 01:05:11;;;;;;;;;;;19.20;56.70;;;;;;1536079;75;792;-60
2023/11/23 01:07:12;;;;;;;;;;;19.20;56.60;;;;;;1541757;75;1738;-64
2023/11/23 01:09:15;;;;;;;;;;;19.20;56.70;;;;;;1549053;75;708;-61
2023/11/23 01:11:17;;;;;;;;;;;19.20;56.60;;;;;;1542220;75;748;-61
2023/11/23 01:13:19;;;;;;;;;;;19.10;56.60;;;;;;1539762;75;1143;-61
2023/11/23 01:15:22;;;;;;;;;;;19.20;56.60;;;;;;1533707;75;726;-61
2023/11/23 01:17:24;;;;;;;;;;;19.20;56.60;;;;;;1535041;75;681;-65
2023/11/23 01:19:27;;;;;;;;;;;19.20;56.60;;;;;;1546379;75;1945;-60
2023/11/23 01:21:29;;;;;;;;;;;19.20;56.60;;;;;;1536825;75;787;-61
2023/11/23 01:23:31;;;;;;;;;;;19.20;56.60;;;;;;1538494;75;1074;-65
2023/11/23 01:25:32;;;;;;;;;;;19.20;56.60;;;;;;1539650;75;577;-62
2023/11/23 01:27:35;;;;;;;;;;;19.20;56.60;;;;;;1537384;75;710;-61
2023/11/23 01:29:37;;;;;;;;;;;19.10;56.60;;;;;;1540009;75;801;-62
2023/11/23 01:31:39;;;;;;;;;;;19.10;56.60;;;;;;1545431;75;778;-62
2023/11/23 01:33:40;;;;;;;;;;;19.10;56.60;;;;;;1539567;75;1058;-64
2023/11/23 01:35:42;;;;;;;;;;;19.20;56.60;;;;;;1545229;75;797;-65
2023/11/23 01:37:44;;;;;;;;;;;19.20;56.60;;;;;;1535095;75;714;-63
2023/11/23 01:39:46;;;;;;;;;;;19.20;56.60;;;;;;1535253;75;754;-61
2023/11/23 01:41:48;;;;;;;;;;;19.20;56.60;;;;;;1537813;75;816;-62
2023/11/23 01:43:51;;;;;;;;;;;19.10;56.60;;;;;;1549823;75;1066;-63
2023/11/23 01:45:53;;;;;;;;;;;19.20;56.70;;;;;;1532688;75;791;-61
2023/11/23 01:47:55;;;;;;;;;;;19.10;56.60;;;;;;1539687;75;778;-63
2023/11/23 01:50:03;;;;;;;;;;;19.20;56.70;;;;;;1542374;75;768;-62
2023/11/23 01:52:01;;;;;;;;;;;19.10;56.60;;;;;;1538210;75;1078;-65
2023/11/23 01:54:03;;;;;;;;;;;19.20;56.60;;;;;;1542155;75;715;-62
2023/11/23 01:56:05;;;;;;;;;;;19.10;56.60;;;;;;1545449;75;1537;-61
2023/11/23 01:58:06;;;;;;;;;;;19.20;56.60;;;;;;1540181;75;1931;-64
2023/11/23 02:00:09;;;;;;;;;;;19.20;56.60;;;;;;1539849;75;712;-60
2023/11/23 02:02:11;;;;;;;;;;;19.10;56.60;;;;;;1544020;75;1069;-62
2023/11/23 02:04:13;;;;;;;;;;;19.20;56.60;;;;;;1536251;75;745;-61
2023/11/23 02:06:15;;;;;;;;;;;19.10;56.60;;;;;;1541852;75;779;-62
2023/11/23 02:08:17;;;;;;;;;;;19.10;56.50;;;;;;1541493;75;762;-61
2023/11/23 02:10:21;;;;;;;;;;;19.10;56.50;;;;;;1544560;75;860;-61
2023/11/23 02:12:23;;;;;;;;;;;19.10;56.50;;;;;;1541730;75;1181;-60
2023/11/23 02:14:25;;;;;;;;;;;19.20;56.50;;;;;;1539555;75;722;-62
2023/11/23 02:16:27;;;;;;;;;;;19.20;56.50;;;;;;1550601;75;737;-65
2023/11/23 02:18:31;;;;;;;;;;;19.20;56.50;;;;;;1537000;75;1910;-64
2023/11/23 02:20:33;;;;;;;;;;;19.20;56.50;;;;;;1540620;75;1072;-62
2023/11/23 02:22:36;;;;;;;;;;;19.20;56.60;;;;;;1539041;75;1166;-65
2023/11/23 02:24:38;;;;;;;;;;;19.20;56.60;;;;;;1538829;75;1550;-60
2023/11/23 02:26:40;;;;;;;;;;;19.20;56.60;;;;;;1543185;75;666;-61
2023/11/23 02:28:42;;;;;;;;;;;19.20;56.50;;;;;;1541881;75;727;-61
2023/11/23 02:30:44;;;;;;;;;;;19.20;56.50;;;;;;1540835;75;710;-62
2023/11/23 02:32:47;;;;;;;;;;;19.10;56.60;;;;;;1536675;75;1124;-64
2023/11/23 02:34:48;;;;;;;;;;;19.10;56.60;;;;;;1546065;75;697;-61
2023/11/23 02:36:50;;;;;;;;;;;19.10;56.60;;;;;;1536955;75;742;-60
2023/11/23 02:38:52;;;;;;;;;;;19.20;56.50;;;;;;1537750;75;1932;-64
2023/11/23 02:40:54;;;;;;;;;;;19.20;56.50;;;;;;1537057;75;723;-62
2023/11/23 02:42:56;;;;;;;;;;;19.20;56.50;;;;;;1539145;75;1098;-64
2023/11/23 02:44:58;;;;;;;;;;;19.20;56.50;;;;;;1542647;75;761;-61
2023/11/23 02:47:00;;;;;;;;;;;19.20;56.50;;;;;;1540890;75;769;-61
2023/11/23 02:49:02;;;;;;;;;;;19.20;56.50;;;;;;1538912;75;728;-62
2023/11/23 02:51:04;;;;;;;;;;;19.20;56.50;;;;;;1548279;75;719;-61
2023/11/23 02:53:06;;;;;;;;;;;19.10;56.50;;;;;;1540687;75;1561;-61
2023/11/23 02:55:10;;;;;;;;;;;19.20;56.50;;;;;;1539181;75;1012;-61
2023/11/23 02:57:11;;;;;;;;;;;19.10;56.60;;;;;;1538060;75;1654;-61
2023/11/23 02:59:13;;;;;;;;;;;19.10;56.50;;;;;;1544748;75;1922;-61
2023/11/23 03:01:15;;;;;;;;;;;19.20;56.50;;;;;;1544612;75;717;-60
2023/11/23 03:03:17;;;;;;;;;;;19.10;56.50;;;;;;1536116;75;1124;-63
2023/11/23 03:05:19;;;;;;;;;;;19.10;56.50;;;;;;1539812;75;715;-61
2023/11/23 03:07:21;;;;;;;;;;;19.20;56.50;;;;;;1544128;75;744;-61
2023/11/23 03:09:23;;;;;;;;;;;19.10;56.50;;;;;;1542192;75;727;-62
2023/11/23 03:11:26;;;;;;;;;;;19.10;56.50;;;;;;1537685;75;719;-64
2023/11/23 03:13:27;;;;;;;;;;;19.20;56.50;;;;;;1541282;75;1141;-61
2023/11/23 03:15:29;;;;;;;;;;;19.20;56.50;;;;;;1528704;75;672;-62
2023/11/23 03:17:32;;;;;;;;;;;19.10;56.50;;;;;;1546579;75;671;-63
2023/11/23 03:19:34;;;;;;;;;;;19.10;56.50;;;;;;1537363;75;1906;-63
2023/11/23 03:21:36;;;;;;;;;;;19.20;56.40;;;;;;1532781;75;767;-62
2023/11/23 03:23:38;;;;;;;;;;;19.10;56.50;;;;;;1537388;75;1119;-62
2023/11/23 03:25:40;;;;;;;;;;;19.10;56.40;;;;;;1540325;75;672;-59
2023/11/23 03:27:41;;;;;;;;;;;19.20;56.50;;;;;;1537838;75;707;-62
2023/11/23 03:29:43;;;;;;;;;;;19.10;56.50;;;;;;1533680;75;775;-60
2023/11/23 03:31:45;;;;;;;;;;;19.20;56.40;;;;;;1529981;75;716;-60
2023/11/23 03:33:47;;;;;;;;;;;19.10;56.50;;;;;;1541824;75;1102;-60
2023/11/23 03:35:50;;;;;;;;;;;19.10;56.50;;;;;;1546657;75;790;-62
2023/11/23 03:37:52;;;;;;;;;;;19.10;56.50;;;;;;1541281;75;779;-61
2023/11/23 03:39:55;;;;;;;;;;;19.10;56.50;;;;;;1548355;75;1935;-61
2023/11/23 03:41:57;;;;;;;;;;;19.10;56.40;;;;;;1532339;75;1132;-61
2023/11/23 03:43:59;;;;;;;;;;;19.10;56.50;;;;;;1540381;75;709;-64
2023/11/23 03:46:01;;;;;;;;;;;19.10;56.50;;;;;;1538163;75;797;-61
2023/11/23 03:48:07;;;;;;;;;;;19.10;56.50;;;;;;1540951;75;784;-60
2023/11/23 03:50:07;;;;;;;;;;;19.20;56.50;;;;;;1538939;75;1587;-61
2023/11/23 03:52:09;;;;;;;;;;;19.10;56.50;;;;;;1542802;75;1074;-60
2023/11/23 03:54:11;;;;;;;;;;;19.10;56.50;;;;;;1535060;75;727;-60
2023/11/23 03:56:16;;;;;;;;;;;19.10;56.50;;;;;;1543447;75;670;-60
2023/11/23 03:58:17;;;;;;;;;;;19.10;56.50;;;;;;1554583;75;716;-61
2023/11/23 04:00:22;;;;;;;;;;;19.10;56.50;;;;;;1548991;75;1944;-60
2023/11/23 04:02:24;;;;;;;;;;;19.10;56.50;;;;;;1542107;74;1140;-60
2023/11/23 04:04:26;;;;;;;;;;;19.10;56.50;;;;;;1536385;75;678;-60
2023/11/23 04:06:27;;;;;;;;;;;19.10;56.50;;;;;;1535402;75;687;-61
2023/11/23 04:08:29;;;;;;;;;;;19.10;56.50;;;;;;1540073;75;739;-61
2023/11/23 04:10:31;;;;;;;;;;;19.10;56.50;;;;;;1537044;75;724;-63
2023/11/23 04:12:33;;;;;;;;;;;19.10;56.50;;;;;;1538907;75;1162;-62
2023/11/23 04:14:35;;;;;;;;;;;19.10;56.50;;;;;;1539336;75;874;-61
2023/11/23 04:16:37;;;;;;;;;;;19.10;56.50;;;;;;1538316;75;970;-62
2023/11/23 04:18:41;;;;;;;;;;;19.20;56.50;;;;;;1536595;75;737;-62
2023/11/23 04:20:42;;;;;;;;;;;19.10;56.50;;;;;;1535239;75;1932;-60
2023/11/23 04:22:44;;;;;;;;;;;19.10;56.50;;;;;;1509823;77;1134;-64
2023/11/23 04:24:47;;;;;;;;;;;19.10;56.50;;;;;;1539443;75;785;-62
2023/11/23 04:26:51;;;;;;;;;;;19.10;56.50;;;;;;1541077;75;724;-60
2023/11/23 04:28:53;;;;;;;;;;;19.20;56.50;;;;;;1541730;75;783;-60
2023/11/23 04:30:56;;;;;;;;;;;19.00;56.30;;;;;;1544013;75;743;-62
2023/11/23 04:32:58;;;;;;;;;;;19.10;56.40;;;;;;1535900;75;1121;-61
2023/11/23 04:35:00;;;;;;;;;;;19.10;56.40;;;;;;1537252;75;696;-62
2023/11/23 04:37:02;;;;;;;;;;;19.10;56.50;;;;;;1546450;75;845;-61
2023/11/23 04:39:04;;;;;;;;;;;19.10;56.40;;;;;;1535537;75;1936;-61
2023/11/23 04:41:06;;;;;;;;;;;19.10;56.40;;;;;;1534794;75;776;-60
2023/11/23 04:43:08;;;;;;;;;;;19.10;56.30;;;;;;1539173;75;1085;-60
2023/11/23 04:45:11;;;;;;;;;;;19.10;56.50;;;;;;1544207;75;1514;-61
2023/11/23 04:47:12;;;;;;;;;;;19.00;56.30;;;;;;1539836;75;756;-61
2023/11/23 04:49:15;;;;;;;;;;;19.10;56.40;;;;;;1545927;75;761;-60
2023/11/23 04:51:17;;;;;;;;;;;19.10;56.50;;;;;;1545471;75;784;-61
2023/11/23 04:53:19;;;;;;;;;;;19.00;56.30;;;;;;1536805;75;1093;-60
2023/11/23 04:55:21;;;;;;;;;;;19.20;56.50;;;;;;1537216;75;754;-60
2023/11/23 04:57:23;;;;;;;;;;;19.20;56.50;;;;;;1534487;75;617;-65
2023/11/23 04:59:24;;;;;;;;;;;19.10;56.50;;;;;;1548079;75;1959;-61
2023/11/23 05:01:26;;;;;;;;;;;19.10;56.40;;;;;;1542408;75;874;-60
2023/11/23 05:03:31;;;;;;;;;;;19.10;56.50;;;;;;1546410;75;1136;-62
2023/11/23 05:05:33;;;;;;;;;;;19.00;56.30;;;;;;1544675;75;787;-61
2023/11/23 05:07:35;;;;;;;;;;;19.20;56.40;;;;;;1540396;75;781;-63
2023/11/23 05:09:37;;;;;;;;;;;19.00;56.30;;;;;;1541384;75;722;-63
2023/11/23 05:11:39;;;;;;;;;;;19.10;56.50;;;;;;1545949;75;751;-61
2023/11/23 05:13:40;;;;;;;;;;;19.10;56.40;;;;;;1533632;75;1126;-60
2023/11/23 05:15:42;;;;;;;;;;;19.10;56.40;;;;;;1549521;75;735;-60
2023/11/23 05:17:44;;;;;;;;;;;19.00;56.30;;;;;;1538879;75;769;-64
2023/11/23 05:19:46;;;;;;;;;;;19.20;56.40;;;;;;1540680;75;1912;-61
2023/11/23 05:21:48;;;;;;;;;;;19.10;56.40;;;;;;1541049;75;766;-65
2023/11/23 05:23:50;;;;;;;;;;;19.10;56.50;;;;;;1543051;74;1092;-63
2023/11/23 05:25:53;;;;;;;;;;;19.10;56.40;;;;;;1546333;75;731;-61
2023/11/23 05:27:55;;;;;;;;;;;19.10;56.40;;;;;;1545074;75;712;-64
2023/11/23 05:29:57;;;;;;;;;;;19.10;56.40;;;;;;1539702;76;715;-62
2023/11/23 05:31:59;;;;;;;;;;;19.00;56.30;;;;;;1535177;75;1114;-64
2023/11/23 05:34:02;;;;;;;;;;;19.10;56.40;;;;;;1541942;75;838;-63
2023/11/23 05:36:07;;;;;;;;;;;19.00;56.30;;;;;;1535259;75;672;-65
2023/11/23 05:38:08;;;;;;;;;;;19.10;56.40;;;;;;1527877;75;1623;-63
2023/11/23 05:40:16;;;;;;;;;;;19.10;56.50;;;;;;1535976;75;1925;-63
2023/11/23 05:42:14;;;;;;;;;;;19.10;56.40;;;;;;1541078;75;1600;-61
2023/11/23 05:44:16;;;;;;;;;;;19.20;56.30;;;;;;1547548;75;830;-61
2023/11/23 05:46:18;;;;;;;;;;;19.10;56.40;;;;;;1539675;75;758;-62
2023/11/23 05:48:20;;;;;;;;;;;19.10;56.40;;;;;;1541582;75;831;-62
2023/11/23 05:50:21;;;;;;;;;;;19.10;56.30;;;;;;1542316;75;775;-61
2023/11/23 05:52:23;;;;;;;;;;;19.10;56.30;;;;;;1537932;74;1147;-61
2023/11/23 05:54:25;;;;;;;;;;;19.10;56.40;;;;;;1534443;75;751;-64
2023/11/23 05:56:27;;;;;;;;;;;19.10;56.30;;;;;;1528679;75;819;-65
2023/11/23 05:58:29;;;;;;;;;;;19.10;56.40;;;;;;1539596;75;821;-61
2023/11/23 06:00:31;;;;;;;;;;;19.10;56.40;;;;;;1535421;75;1946;-61
2023/11/23 06:02:33;;;;;;;;;;;19.10;56.40;;;;;;1539104;75;1141;-62
2023/11/23 06:04:35;;;;;;;;;;;19.10;56.30;;;;;;1534590;75;665;-62
2023/11/23 06:06:36;;;;;;;;;;;19.10;56.40;;;;;;1536997;75;714;-62
2023/11/23 06:08:38;;;;;;;;;;;19.10;56.40;;;;;;1532663;75;861;-62
2023/11/23 06:10:40;;;;;;;;;;;19.10;56.40;;;;;;1541496;75;761;-61
2023/11/23 06:12:42;;;;;;;;;;;19.10;56.30;;;;;;1534459;75;1174;-62
2023/11/23 06:14:44;;;;;;;;;;;19.00;56.30;;;;;;1550271;75;877;-65
2023/11/23 06:16:46;;;;;;;;;;;19.10;56.40;;;;;;1537286;76;688;-62
2023/11/23 06:18:48;;;;;;;;;;;19.10;56.30;;;;;;1534210;75;741;-64
2023/11/23 06:20:50;;;;;;;;;;;19.10;56.30;;;;;;1541616;75;1951;-62
2023/11/23 06:22:52;;;;;;;;;;;19.10;56.40;;;;;;1535621;74;1112;-62
2023/11/23 06:24:53;;;;;;;;;;;19.10;56.30;;;;;;1541236;75;703;-62
2023/11/23 06:26:55;;;;;;;;;;;19.10;56.30;;;;;;1530783;75;763;-62
2023/11/23 06:28:57;;;;;;;;;;;19.10;56.30;;;;;;1533118;75;783;-65
2023/11/23 06:30:59;;;;;;;;;;;19.00;56.30;;;;;;1530268;76;699;-65
2023/11/23 06:33:01;;;;;;;;;;;19.10;56.30;;;;;;1528844;75;1130;-64
2023/11/23 06:35:03;;;;;;;;;;;19.10;56.30;;;;;;1541383;75;717;-63
2023/11/23 06:37:05;;;;;;;;;;;19.10;56.30;;;;;;1543551;75;727;-62
2023/11/23 06:39:09;;;;;;;;;;;19.10;56.30;;;;;;1536110;75;1692;-62
2023/11/23 06:41:19;;;;;;;;;;;19.10;56.30;;;;;;1535506;75;1912;-61
2023/11/23 06:43:21;;;;;;;;;;;19.10;56.30;;;;;;1540499;75;1058;-62
2023/11/23 06:45:23;;;;;;;;;;;19.10;56.30;;;;;;1541884;75;732;-62
2023/11/23 06:47:26;;;;;;;;;;;19.10;56.30;;;;;;1534686;75;783;-65
2023/11/23 06:49:27;;;;;;;;;;;19.10;56.30;;;;;;1538558;75;731;-63
2023/11/23 06:51:29;;;;;;;;;;;19.10;56.30;;;;;;1551120;75;758;-63
2023/11/23 06:53:31;;;;;;;;;;;19.10;56.30;;;;;;1542401;75;1141;-65
2023/11/23 06:55:33;;;;;;;;;;;19.10;56.30;;;;;;1534233;75;695;-65
2023/11/23 06:57:39;;;;;;;;;;;19.00;56.20;;;;;;1537444;75;761;-63
2023/11/23 06:59:38;;;;;;;;;;;19.10;56.30;;;;;;1539460;75;1603;-63
2023/11/23 07:01:40;;;;;;;;;;;19.10;56.30;;;;;;1535244;75;1929;-62
2023/11/23 07:03:42;;;;;;;;;;;19.10;56.20;;;;;;1535907;75;1117;-61
2023/11/23 07:05:44;;;;;;;;;;;19.10;56.30;;;;;;1533126;75;867;-65
2023/11/23 07:07:51;;;;;;;;;;;19.00;56.10;;;;;;1545328;75;777;-62
2023/11/23 07:09:50;;;;;;;;;;;19.10;56.20;;;;;;1541674;75;1240;-64
2023/11/23 07:11:54;;;;;;;;;;;19.10;56.30;;;;;;1539374;75;683;-63
2023/11/23 07:13:55;;;;;;;;;;;19.10;56.20;;;;;;1545449;75;2074;-64
2023/11/23 07:15:59;;;;;;;;;;;19.10;56.30;;;;;;1536728;75;720;-65
2023/11/23 07:18:01;;;;;;;;;;;19.10;56.30;;;;;;1538544;75;719;-63
2023/11/23 07:20:05;;;;;;;;;;;19.10;56.30;;;;;;1542263;75;1934;-63
2023/11/23 07:22:06;;;;;;;;;;;19.10;56.20;;;;;;1539873;75;1138;-66
2023/11/23 07:24:09;;;;;;;;;;;19.10;56.20;;;;;;1532560;75;785;-65
2023/11/23 07:26:11;;;;;;;;;;;19.00;56.10;;;;;;1543310;75;723;-64
2023/11/23 07:28:13;;;;;;;;;;;19.10;56.10;;;;;;1540687;75;740;-62
2023/11/23 07:30:15;;;;;;;;;;;19.10;56.20;;;;;;1535669;75;775;-65
2023/11/23 07:32:17;;;;;;;;;;;19.10;56.20;;;;;;1538709;75;1231;-61
2023/11/23 07:34:19;;;;;;;;;;;19.10;56.20;;;;;;1538477;75;1476;-62
2023/11/23 07:36:23;;;;;;;;;;;19.10;56.30;;;;;;1538887;75;712;-61
2023/11/23 07:38:25;;;;;;;;;;;19.10;56.30;;;;;;1539531;75;1495;-61
2023/11/23 07:40:27;;;;;;;;;;;19.10;56.20;;;;;;1545535;75;1936;-64
2023/11/23 07:42:29;;;;;;;;;;;19.10;56.20;;;;;;1536375;75;1135;-65
2023/11/23 07:44:33;;;;;;;;;;;19.10;56.20;;;;;;1542338;75;759;-61
2023/11/23 07:46:35;;;;;;;;;;;19.10;56.20;;;;;;1533940;75;687;-62
2023/11/23 07:48:37;;;;;;;;;;;19.10;56.20;;;;;;1537559;75;803;-60
2023/11/23 07:50:39;;;;;;;;;;;19.10;56.10;;;;;;1540678;75;771;-62
2023/11/23 07:52:41;;;;;;;;;;;19.10;56.20;;;;;;1537141;75;1147;-63
2023/11/23 07:54:43;;;;;;;;;;;19.10;56.10;;;;;;1531477;75;735;-61
2023/11/23 07:56:46;;;;;;;;;;;19.10;56.20;;;;;;1533968;75;794;-61
2023/11/23 07:58:49;;;;;;;;;;;19.00;56.00;;;;;;1539393;75;662;-60
2023/11/23 08:00:51;;;;;;;;;;;19.10;56.10;;;;;;1538845;75;1923;-60
2023/11/23 08:02:54;;;;;;;;;;;19.10;56.10;;;;;;1511420;77;1139;-60
2023/11/23 08:04:56;;;;;;;;;;;19.10;56.10;;;;;;1538002;75;722;-60
2023/11/23 08:06:58;;;;;;;;;;;19.10;56.10;;;;;;1543404;75;679;-62
2023/11/23 08:09:00;;;;;;;;;;;19.20;56.10;;;;;;1542956;75;726;-63
2023/11/23 08:11:02;;;;;;;;;;;19.10;56.20;;;;;;1538720;75;665;-62
2023/11/23 08:13:04;;;;;;;;;;;19.10;56.10;;;;;;1538344;75;1129;-61
2023/11/23 08:15:07;;;;;;;;;;;19.20;56.10;;;;;;1536975;75;670;-63
2023/11/23 08:17:09;;;;;;;;;;;19.10;56.10;;;;;;1538557;75;735;-61
2023/11/23 08:19:14;;;;;;;;;;;19.10;56.10;;;;;;1534424;75;757;-62
2023/11/23 08:21:14;;;;;;;;;;;19.10;56.10;;;;;;1544061;75;1926;-61
2023/11/23 08:23:16;;;;;;;;;;;19.10;56.00;;;;;;1538921;75;1133;-61
2023/11/23 08:25:18;;;;;;;;;;;19.10;56.10;;;;;;1534084;75;720;-60
2023/11/23 08:27:20;;;;;;;;;;;19.00;56.00;;;;;;1539467;75;798;-61
2023/11/23 08:29:22;;;;;;;;;;;19.10;56.00;;;;;;1537952;75;734;-61
2023/11/23 08:31:28;;;;;;;;;;;19.00;56.00;;;;;;1549160;75;1667;-63
2023/11/23 08:33:27;;;;;;;;;;;19.00;56.00;;;;;;1537777;75;1180;-61
2023/11/23 08:35:29;;;;;;;;;;;19.00;56.00;;;;;;1535946;75;728;-63
2023/11/23 08:37:31;;;;;;;;;;;19.10;56.10;;;;;;1534940;75;1130;-64
2023/11/23 08:39:33;;;;;;;;;;;19.00;55.90;;;;;;1544704;75;698;-61
2023/11/23 08:41:35;;;;;;;;;;;19.10;56.10;;;;;;1550078;75;1940;-63
2023/11/23 08:43:37;;;;;;;;;;;19.10;56.10;;;;;;1534306;75;1122;-61
2023/11/23 08:45:39;;;;;;;;;;;19.10;56.10;;;;;;1537785;75;749;-65
2023/11/23 08:47:41;;;;;;;;;;;19.10;56.00;;;;;;1546701;75;797;-62
2023/11/23 08:49:43;;;;;;;;;;;19.10;56.00;;;;;;1539468;75;601;-64
2023/11/23 08:51:45;;;;;;;;;;;19.10;56.00;;;;;;1533571;75;735;-63
2023/11/23 08:53:47;;;;;;;;;;;19.10;56.00;;;;;;1544681;74;1143;-61
2023/11/23 08:55:50;;;;;;;;;;;19.10;56.00;;;;;;1551313;75;748;-62
2023/11/23 08:57:52;;;;;;;;;;;19.10;56.00;;;;;;1531452;75;749;-61
2023/11/23 08:59:55;;;;;;;;;;;19.10;56.00;;;;;;1548313;75;729;-63
2023/11/23 09:01:57;;;;;;;;;;;19.10;56.00;;;;;;1538350;75;1916;-61
2023/11/23 09:03:58;;;;;;;;;;;19.00;55.80;;;;;;1543920;75;721;-60
2023/11/23 09:06:00;;;;;;;;;;;19.10;56.00;;;;;;1538901;75;691;-62
2023/11/23 09:08:06;;;;;;;;;;;19.10;56.00;;;;;;1535990;75;698;-64
2023/11/23 09:10:06;;;;;;;;;;;19.10;56.00;;;;;;1535397;75;1407;-59
2023/11/23 09:12:08;;;;;;;;;;;19.00;55.80;;;;;;1545061;75;1138;-61
2023/11/23 09:14:10;;;;;;;;;;;19.10;56.00;;;;;;1533313;75;722;-64
2023/11/23 09:16:13;;;;;;;;;;;19.10;56.00;;;;;;1538845;75;762;-60
2023/11/23 09:18:15;;;;;;;;;;;19.00;55.90;;;;;;1538922;75;1037;-61
2023/11/23 09:20:17;;;;;;;;;;;19.10;56.00;;;;;;1533898;75;994;-62
2023/11/23 09:22:19;;;;;;;;;;;19.10;56.00;;;;;;1539942;75;1936;-62
2023/11/23 09:24:21;;;;;;;;;;;19.10;56.00;;;;;;1544287;75;731;-63
2023/11/23 09:26:23;;;;;;;;;;;19.10;56.00;;;;;;1543799;75;1532;-60
2023/11/23 09:28:25;;;;;;;;;;;19.10;56.00;;;;;;1544673;75;752;-61
2023/11/23 09:30:27;;;;;;;;;;;19.10;56.00;;;;;;1536635;75;723;-64
2023/11/23 09:32:30;;;;;;;;;;;19.00;55.80;;;;;;1532872;75;1162;-63
2023/11/23 09:34:32;;;;;;;;;;;19.10;56.00;;;;;;1543747;75;690;-61
2023/11/23 09:36:34;;;;;;;;;;;19.00;55.90;;;;;;1539540;75;697;-61
2023/11/23 09:38:36;;;;;;;;;;;19.10;56.00;;;;;;1530139;75;760;-62
2023/11/23 09:40:38;;;;;;;;;;;19.10;56.00;;;;;;1534235;75;745;-62
2023/11/23 09:42:40;;;;;;;;;;;19.10;56.00;;;;;;1541135;75;1980;-61
2023/11/23 09:44:42;;;;;;;;;;;19.10;56.00;;;;;;1542518;75;810;-61
2023/11/23 09:46:43;;;;;;;;;;;19.10;56.00;;;;;;1540557;75;825;-61
2023/11/23 09:48:46;;;;;;;;;;;19.10;56.00;;;;;;1544562;75;788;-61
2023/11/23 09:50:48;;;;;;;;;;;19.10;56.00;;;;;;1541487;75;717;-61
2023/11/23 09:52:50;;;;;;;;;;;19.00;55.90;;;;;;1538500;75;1180;-64
2023/11/23 09:54:52;;;;;;;;;;;19.10;56.00;;;;;;1525631;75;685;-63
2023/11/23 09:56:54;;;;;;;;;;;19.10;56.00;;;;;;1550172;75;673;-62
2023/11/23 09:58:56;;;;;;;;;;;19.10;56.00;;;;;;1537560;75;609;-62
2023/11/23 10:00:59;;;;;;;;;;;19.10;56.00;;;;;;1538308;75;1939;-62
2023/11/23 10:03:01;;;;;;;;;;;19.00;55.80;;;;;;1534694;75;1094;-61
2023/11/23 10:05:03;;;;;;;;;;;19.00;55.90;;;;;;1534615;75;673;-62
2023/11/23 10:07:05;;;;;;;;;;;19.10;56.00;;;;;;1542372;75;664;-62
2023/11/23 10:09:09;;;;;;;;;;;19.00;55.80;;;;;;1535563;75;686;-64
2023/11/23 10:11:10;;;;;;;;;;;19.00;55.90;;;;;;1539243;75;1796;-62
2023/11/23 10:13:12;;;;;;;;;;;19.10;56.00;;;;;;1535370;75;1145;-66
2023/11/23 10:15:15;;;;;;;;;;;19.10;56.00;;;;;;1539827;75;738;-62
2023/11/23 10:17:17;;;;;;;;;;;19.10;55.90;;;;;;1538394;75;775;-65
2023/11/23 10:19:20;;;;;;;;;;;19.10;56.00;;;;;;1504742;77;653;-60
2023/11/23 10:21:22;;;;;;;;;;;19.10;56.00;;;;;;1516778;76;1938;-62
2023/11/23 10:23:24;;;;;;;;;;;19.10;56.00;;;;;;1515471;76;1347;-61
2023/11/23 10:25:31;;;;;;;;;;;19.10;56.00;;;;;;1525575;76;751;-63
2023/11/23 10:27:33;;;;;;;;;;;19.10;56.00;;;;;;1528211;76;1666;-63
2023/11/23 10:29:35;;;;;;;;;;;19.00;55.80;;;;;;1524393;76;730;-61
2023/11/23 10:31:37;;;;;;;;;;;19.10;56.00;;;;;;1525559;76;803;-65
2023/11/23 10:33:39;;;;;;;;;;;19.00;55.80;;;;;;1523604;76;1162;-61
2023/11/23 10:35:50;;;;;;;;;;;19.00;55.80;;;;;;1528651;76;659;-63
2023/11/23 10:37:54;;;;;;;;;;;19.00;55.80;;;;;;1528314;76;1733;-61
2023/11/23 10:39:56;;;;;;;;;;;19.10;56.00;;;;;;1526855;76;727;-61
2023/11/23 10:41:59;;;;;;;;;;;19.10;56.00;;;;;;1529103;76;1928;-63
2023/11/23 10:44:03;;;;;;;;;;;19.10;56.00;;;;;;1524384;76;746;-63
2023/11/23 10:46:14;;;;;;;;;;;19.10;55.90;;;;;;1529485;76;785;-61
2023/11/23 10:48:16;;;;;;;;;;;19.10;55.90;;;;;;1524668;76;1056;-61
2023/11/23 10:50:19;;;;;;;;;;;19.10;55.90;;;;;;1530381;76;797;-62
2023/11/23 10:52:21;;;;;;;;;;;19.10;55.90;;;;;;1528751;76;1150;-60
2023/11/23 10:54:23;;;;;;;;;;;19.10;55.90;;;;;;1532392;76;847;-61
2023/11/23 10:56:26;;;;;;;;;;;19.10;55.90;;;;;;1525013;76;754;-61
2023/11/23 10:58:28;;;;;;;;;;;19.00;55.70;;;;;;1525354;76;713;-65
2023/11/23 11:00:30;;;;;;;;;;;19.10;55.80;;;;;;1532255;76;723;-63
2023/11/23 11:02:32;;;;;;;;;;;19.10;55.80;;;;;;1524121;76;1933;-62
2023/11/23 11:04:34;;;;;;;;;;;19.10;55.80;;;;;;1522683;76;1529;-61
2023/11/23 11:06:41;;;;;;;;;;;19.10;55.80;;;;;;1534892;76;680;-61
2023/11/23 11:08:50;;;;;;;;;;;19.00;55.70;;;;;;1519820;76;716;-63
2023/11/23 11:10:53;;;;;;;;;;;19.00;55.70;;;;;;1534650;76;721;-61
2023/11/23 11:13:08;;;;;;;;;;;19.10;55.70;;;;;;1528683;76;1076;-62
2023/11/23 11:15:10;;;;;;;;;;;19.10;55.80;;;;;;1526495;76;779;-62
2023/11/23 11:17:12;;;;;;;;;;;19.10;55.80;;;;;;1492143;77;1194;-62
2023/11/23 11:19:13;;;;;;;;;;;19.10;55.80;;;;;;1512377;77;1538;-60
2023/11/23 11:21:17;;;;;;;;;;;19.10;55.80;;;;;;1491960;79;758;-61
2023/11/23 11:23:19;;;;;;;;;;;19.10;55.80;;;;;;1490886;76;1058;-63
2023/11/23 11:25:22;;;;;;;;;;;19.10;55.80;;;;;;1496042;78;730;-61
2023/11/23 11:27:24;;;;;;;;;;;19.10;55.80;;;;;;1515202;77;817;-61
2023/11/23 11:29:26;;;;;;;;;;;19.10;55.80;;;;;;1510873;77;667;-61
2023/11/23 11:31:31;;;;;;;;;;;19.10;55.80;;;;;;1459552;79;1243;-61
2023/11/23 11:33:33;;;;;;;;;;;19.00;55.70;;;;;;1526778;76;1604;-62
2023/11/23 11:35:37;;;;;;;;;;;19.00;55.60;;;;;;1534078;76;749;-62
2023/11/23 11:37:39;;;;;;;;;;;19.10;55.80;;;;;;1528568;76;1823;-63
2023/11/23 11:39:41;;;;;;;;;;;19.10;55.70;;;;;;1526694;76;746;-61
2023/11/23 11:41:43;;;;;;;;;;;19.10;55.70;;;;;;1521588;76;1937;-64
2023/11/23 11:43:44;;;;;;;;;;;19.10;55.70;;;;;;1528237;76;1056;-61
2023/11/23 11:45:49;;;;;;;;;;;19.10;55.70;;;;;;1532526;76;751;-61
2023/11/23 11:47:53;;;;;;;;;;;19.00;55.60;;;;;;1527111;76;1539;-61
2023/11/23 11:49:55;;;;;;;;;;;19.00;55.60;;;;;;1526500;76;1887;-60
2023/11/23 11:51:57;;;;;;;;;;;19.10;55.70;;;;;;1524602;76;1123;-61
2023/11/23 11:54:01;;;;;;;;;;;19.10;55.70;;;;;;1527924;76;687;-63
2023/11/23 11:56:03;;;;;;;;;;;19.00;55.60;;;;;;1526941;76;683;-64
2023/11/23 11:58:05;;;;;;;;;;;19.00;55.60;;;;;;1526746;76;748;-64
2023/11/23 12:00:08;;;;;;;;;;;19.10;55.80;;;;;;1525426;76;679;-60
2023/11/23 12:02:10;;;;;;;;;;;19.10;55.70;;;;;;1520663;76;1918;-60
2023/11/23 12:04:17;;;;;;;;;;;19.10;55.70;;;;;;1528705;76;782;-58
2023/11/23 12:06:19;;;;;;;;;;;19.10;55.70;;;;;;1525764;76;1078;-61
2023/11/23 12:08:20;;;;;;;;;;;19.10;55.70;;;;;;1530831;76;685;-60
2023/11/23 12:10:22;;;;;;;;;;;19.10;55.70;;;;;;1526430;76;837;-58